Time;durP1;ratioP1;P1;durP2;ratioP2;P2;SDS_P1;SDS_P2;PMS_P1;PMS_P2;Temp;Humidity;BMP_temperature;BMP_pressure;BME280_temperature;BME280_humidity;BME280_pressure;Samples;Min_cycle;Max_cycle;Signal;HPM_P1;HPM_P2
2023/09/01 00:01:03;;;;;;;10.90;8.20;;;;;;;12.01;100.00;97849.49;107201;1266;22527;-82
2023/09/01 00:03:51;;;;;;;12.30;7.60;;;;;;;12.02;100.00;97852.23;107057;1269;25339;-81
2023/09/01 00:06:19;;;;;;;10.10;6.80;;;;;;;11.98;100.00;97858.46;106869;1276;24382;-81
2023/09/01 00:08:47;;;;;;;8.90;7.20;;;;;;;11.87;100.00;97859.20;107190;1273;22683;-81
2023/09/01 00:11:16;;;;;;;11.70;8.10;;;;;;;11.83;100.00;97860.71;107139;1276;24352;-82
2023/09/01 00:13:44;;;;;;;8.60;7.50;;;;;;;11.87;100.00;97853.75;106623;1278;22538;-82
2023/09/01 00:16:12;;;;;;;10.30;8.00;;;;;;;11.87;100.00;97856.14;106989;1264;22636;-80
2023/09/01 00:18:40;;;;;;;10.70;7.10;;;;;;;11.84;100.00;97856.52;107207;1276;24068;-82
2023/09/01 00:21:08;;;;;;;12.20;7.70;;;;;;;11.75;100.00;97851.90;107256;1266;22671;-81
2023/09/01 00:23:36;;;;;;;11.30;7.60;;;;;;;11.74;100.00;97852.95;106980;1267;25529;-82
2023/09/01 00:26:04;;;;;;;9.50;6.90;;;;;;;11.75;100.00;97851.96;107204;1267;25555;-82
2023/09/01 00:28:32;;;;;;;7.90;7.10;;;;;;;11.76;100.00;97848.95;107025;1276;217011;-82
2023/09/01 00:31:00;;;;;;;11.30;6.60;;;;;;;11.80;100.00;97854.07;107179;1273;25461;-82
2023/09/01 00:33:30;;;;;;;13.80;9.10;;;;;;;11.77;100.00;97857.41;106978;1263;22578;-83
2023/09/01 00:36:00;;;;;;;9.90;8.20;;;;;;;11.78;100.00;97849.27;107236;1276;23647;-83
2023/09/01 00:38:32;;;;;;;12.10;7.60;;;;;;;11.82;100.00;97848.44;107153;1271;22568;-82
2023/09/01 00:41:00;;;;;;;9.00;7.80;;;;;;;11.98;100.00;97849.37;107167;1276;25477;-83
2023/09/01 00:43:28;;;;;;;9.50;6.30;;;;;;;12.07;100.00;97846.98;107005;1276;22576;-82
2023/09/01 00:45:58;;;;;;;12.50;7.00;;;;;;;12.07;100.00;97854.52;106887;1267;25459;-83
2023/09/01 00:48:27;;;;;;;10.20;6.60;;;;;;;12.01;100.00;97854.92;107089;1263;22982;-83
2023/09/01 00:50:55;;;;;;;8.30;7.10;;;;;;;11.93;100.00;97856.52;107065;1276;22590;-83
2023/09/01 00:53:26;;;;;;;8.80;6.80;;;;;;;11.84;100.00;97859.20;107065;1276;22560;-83
2023/09/01 00:55:57;;;;;;;10.70;7.70;;;;;;;11.83;100.00;97857.92;107104;1276;23262;-82
2023/09/01 00:58:26;;;;;;;8.70;6.60;;;;;;;11.85;100.00;97851.08;107187;1270;22606;-82
2023/09/01 01:00:57;;;;;;;9.90;5.80;;;;;;;11.89;100.00;97853.77;107222;1276;24222;-82
2023/09/01 01:03:27;;;;;;;9.20;6.60;;;;;;;11.91;100.00;97856.95;107244;1270;22524;-82
2023/09/01 01:06:10;;;;;;;8.00;6.40;;;;;;;11.91;100.00;97854.90;107199;1276;22651;-82
2023/09/01 01:08:50;;;;;;;7.50;6.30;;;;;;;11.88;100.00;97854.98;107019;1260;22677;-82
2023/09/01 01:11:51;;;;;;;7.00;5.80;;;;;;;11.85;100.00;97849.63;107099;1276;22646;-83
2023/09/01 01:14:25;;;;;;;8.40;5.40;;;;;;;11.77;100.00;97858.71;106916;1271;22627;-82
2023/09/01 01:16:54;;;;;;;;;;;;;;;11.70;100.00;97857.27;106903;1263;22636;-84
2023/09/01 01:20:13;;;;;;;8.50;5.90;;;;;;;11.64;100.00;97859.95;107245;1270;22528;-82
2023/09/01 01:22:47;;;;;;;7.20;6.10;;;;;;;11.60;100.00;97863.60;106587;1282;22646;-82
2023/09/01 01:25:17;;;;;;;8.60;5.90;;;;;;;11.58;100.00;97866.77;106162;1283;22561;-82
2023/09/01 01:27:45;;;;;;;7.90;6.40;;;;;;;11.64;100.00;97869.88;106332;1273;24311;-83
2023/09/01 01:30:16;;;;;;;9.60;5.60;;;;;;;11.62;100.00;97870.67;106450;1271;22603;-83
2023/09/01 01:32:45;;;;;;;8.50;5.40;;;;;;;11.65;100.00;97867.42;106426;1271;24274;-83
2023/09/01 01:35:38;;;;;;;10.40;5.70;;;;;;;11.70;100.00;97866.98;106557;1273;22627;-82
2023/09/01 01:38:25;;;;;;;6.70;5.10;;;;;;;11.73;100.00;97863.98;107103;1282;22581;-81
2023/09/01 01:41:04;;;;;;;8.90;5.90;;;;;;;11.69;100.00;97872.41;106278;1285;23889;-82
2023/09/01 01:43:33;;;;;;;7.40;5.50;;;;;;;11.61;100.00;97869.04;106477;1282;22653;-82
2023/09/01 01:46:04;;;;;;;8.10;5.10;;;;;;;11.53;100.00;97869.59;106517;1279;22788;-82
2023/09/01 01:48:37;;;;;;;7.30;5.00;;;;;;;11.45;100.00;97865.61;106632;1271;22549;-82
2023/09/01 01:51:05;;;;;;;9.00;5.20;;;;;;;11.53;100.00;97862.91;106750;1285;22537;-82
2023/09/01 01:53:35;;;;;;;6.50;5.10;;;;;;;11.60;100.00;97859.13;106469;1279;22625;-82
2023/09/01 01:56:03;;;;;;;7.50;5.20;;;;;;;11.61;100.00;97861.52;106370;1285;22593;-83
2023/09/01 01:58:32;;;;;;;9.10;5.80;;;;;;;11.54;100.00;97867.20;106474;1263;25542;-82
2023/09/01 02:01:06;;;;;;;7.80;5.40;;;;;;;11.55;100.00;97866.58;106901;1278;22637;-82
2023/09/01 02:03:34;;;;;;;6.90;5.30;;;;;;;11.58;100.00;97866.83;107173;1278;23125;-82
2023/09/01 02:06:03;;;;;;;7.00;4.50;;;;;;;11.59;100.00;97873.73;107079;1264;24089;-82
2023/09/01 02:08:31;;;;;;;7.60;5.60;;;;;;;11.58;100.00;97879.52;107227;1270;22756;-83
2023/09/01 02:10:59;;;;;;;8.30;5.30;;;;;;;11.49;100.00;97883.86;107101;1277;22585;-83
2023/09/01 02:13:28;;;;;;;7.40;5.30;;;;;;;11.42;100.00;97877.36;106897;1278;22523;-83
2023/09/01 02:15:56;;;;;;;8.20;5.40;;;;;;;11.36;100.00;97880.43;107110;1254;23431;-83
2023/09/01 02:18:25;;;;;;;5.80;4.70;;;;;;;11.36;100.00;97879.35;106929;1278;22830;-83
2023/09/01 02:20:53;;;;;;;9.60;4.80;;;;;;;11.33;100.00;97880.95;107115;1278;22644;-82
2023/09/01 02:23:21;;;;;;;9.20;5.40;;;;;;;11.29;100.00;97878.16;107147;1272;23411;-82
2023/09/01 02:25:49;;;;;;;8.40;5.20;;;;;;;11.25;100.00;97876.04;107133;1277;22538;-81
2023/09/01 02:28:17;;;;;;;9.20;4.90;;;;;;;11.16;100.00;97879.16;106990;1277;22825;-81
2023/09/01 02:30:45;;;;;;;6.40;4.80;;;;;;;11.13;100.00;97880.63;107133;1269;25495;-81
2023/09/01 02:33:14;;;;;;;7.50;5.50;;;;;;;11.05;100.00;97879.61;107142;1276;22770;-82
2023/09/01 02:35:44;;;;;;;8.40;5.70;;;;;;;10.98;100.00;97878.63;107103;1263;25345;-82
2023/09/01 02:38:13;;;;;;;6.10;5.10;;;;;;;11.00;100.00;97877.29;107190;1267;22529;-82
2023/09/01 02:40:41;;;;;;;7.60;5.50;;;;;;;11.06;100.00;97877.16;107106;1275;24243;-82
2023/09/01 02:43:09;;;;;;;6.50;4.80;;;;;;;11.15;100.00;97878.36;107132;1276;22591;-82
2023/09/01 02:45:37;;;;;;;6.80;5.10;;;;;;;11.21;100.00;97879.65;106975;1275;22551;-82
2023/09/01 02:48:05;;;;;;;6.30;5.10;;;;;;;11.20;100.00;97882.37;106879;1266;22530;-82
2023/09/01 02:50:34;;;;;;;8.90;5.00;;;;;;;11.18;100.00;97879.77;107189;1269;22737;-81
2023/09/01 02:53:04;;;;;;;7.10;5.20;;;;;;;11.13;100.00;97874.30;108309;1273;22953;-82
2023/09/01 02:55:33;;;;;;;6.10;4.70;;;;;;;11.14;100.00;97877.27;109701;1273;24321;-82
2023/09/01 02:58:00;;;;;;;7.80;5.40;;;;;;;11.18;100.00;97880.09;109502;1276;22583;-81
2023/09/01 03:00:29;;;;;;;6.90;5.80;;;;;;;11.14;100.00;97878.44;110257;1276;22736;-79
2023/09/01 03:02:57;;;;;;;8.00;5.20;;;;;;;11.17;100.00;97878.98;107785;1269;22767;-81
2023/09/01 03:05:25;;;;;;;8.70;5.50;;;;;;;11.16;100.00;97879.31;107141;1270;25447;-82
2023/09/01 03:07:54;;;;;;;6.30;5.10;;;;;;;11.24;100.00;97880.92;107168;1266;22649;-81
2023/09/01 03:10:22;;;;;;;6.60;5.10;;;;;;;11.32;100.00;97881.66;107041;1276;25401;-81
2023/09/01 03:12:50;;;;;;;6.30;5.10;;;;;;;11.39;100.00;97880.92;106671;1275;24468;-81
2023/09/01 03:15:18;;;;;;;11.50;5.50;;;;;;;11.42;100.00;97884.09;107040;1276;22701;-81
2023/09/01 03:17:46;;;;;;;7.20;5.70;;;;;;;11.45;100.00;97885.23;107041;1262;22670;-81
2023/09/01 03:20:15;;;;;;;6.30;4.90;;;;;;;11.42;100.00;97881.77;107198;1276;22562;-82
2023/09/01 03:22:43;;;;;;;7.00;4.50;;;;;;;11.44;100.00;97881.58;107079;1266;22609;-82
2023/09/01 03:25:11;;;;;;;8.20;5.10;;;;;;;11.49;100.00;97881.77;106826;1270;22689;-82
2023/09/01 03:27:40;;;;;;;6.50;4.80;;;;;;;11.52;100.00;97881.10;107124;1271;22551;-81
2023/09/01 03:30:10;;;;;;;6.30;5.00;;;;;;;11.49;100.00;97885.60;107106;1276;22581;-81
2023/09/01 03:32:40;;;;;;;8.00;5.80;;;;;;;11.40;100.00;97885.31;107236;1276;26488;-83
2023/09/01 03:35:09;;;;;;;6.70;4.80;;;;;;;11.34;100.00;97887.98;107624;1276;25814;-82
2023/09/01 03:37:37;;;;;;;7.70;5.20;;;;;;;11.29;100.00;97890.95;107127;1270;25406;-83
2023/09/01 03:40:09;;;;;;;10.80;6.00;;;;;;;11.32;100.00;97888.20;106981;1276;25726;-82
2023/09/01 03:42:39;;;;;;;8.10;4.80;;;;;;;11.36;100.00;97894.83;106640;1267;25436;-81
2023/09/01 03:45:08;;;;;;;9.50;5.50;;;;;;;11.34;100.00;97892.56;107102;1272;22906;-82
2023/09/01 03:47:36;;;;;;;8.00;5.20;;;;;;;11.32;100.00;97892.30;107220;1269;22534;-83
2023/09/01 03:50:05;;;;;;;6.80;5.40;;;;;;;11.31;100.00;97889.92;106981;1266;22613;-81
2023/09/01 03:52:33;;;;;;;9.20;5.60;;;;;;;11.24;100.00;97890.25;106993;1276;22523;-82
2023/09/01 03:55:01;;;;;;;7.60;5.50;;;;;;;11.23;100.00;97891.68;106610;1276;24397;-80
2023/09/01 03:57:29;;;;;;;9.00;8.00;;;;;;;11.22;100.00;97892.13;106985;1272;25409;-82
2023/09/01 03:59:57;;;;;;;9.60;5.40;;;;;;;11.25;100.00;97887.97;107016;1273;22552;-82
2023/09/01 04:02:25;;;;;;;5.90;4.90;;;;;;;11.25;100.00;97890.73;106940;1276;22666;-81
2023/09/01 04:04:53;;;;;;;7.80;5.30;;;;;;;11.21;100.00;97894.95;107138;1269;23356;-81
2023/09/01 04:07:21;;;;;;;7.10;5.00;;;;;;;11.21;100.00;97893.72;107116;1276;22823;-82
2023/09/01 04:09:49;;;;;;;7.70;5.20;;;;;;;11.21;100.00;97888.05;107133;1274;22577;-81
2023/09/01 04:12:17;;;;;;;7.60;6.50;;;;;;;11.21;100.00;97887.14;107138;1276;22689;-81
2023/09/01 04:14:45;;;;;;;8.60;6.00;;;;;;;11.20;100.00;97889.96;107158;1266;22652;-82
2023/09/01 04:17:13;;;;;;;7.50;6.00;;;;;;;11.11;100.00;97894.09;107143;1276;22547;-80
2023/09/01 04:19:46;;;;;;;8.00;6.10;;;;;;;11.02;100.00;97892.45;107243;1270;22799;-81
2023/09/01 04:22:14;;;;;;;7.50;6.30;;;;;;;10.99;100.00;97890.00;106968;1276;22530;-82
2023/09/01 04:24:43;;;;;;;8.20;6.20;;;;;;;11.00;100.00;97888.98;106791;1273;22575;-82
2023/09/01 04:27:11;;;;;;;7.20;6.00;;;;;;;11.05;100.00;97891.56;107007;1276;24209;-81
2023/09/01 04:29:40;;;;;;;7.80;5.90;;;;;;;11.09;100.00;97895.42;107130;1263;25555;-81
2023/09/01 04:32:16;;;;;;;8.60;6.70;;;;;;;11.09;100.00;97898.28;107199;1270;22535;-81
2023/09/01 04:34:44;;;;;;;12.60;6.70;;;;;;;11.05;100.00;97898.48;107088;1276;22821;-82
2023/09/01 04:37:13;;;;;;;13.60;7.00;;;;;;;11.00;100.00;97902.09;107025;1272;22640;-81
2023/09/01 04:39:41;;;;;;;9.90;7.60;;;;;;;10.99;100.00;97901.85;107283;1276;24370;-82
2023/09/01 04:42:10;;;;;;;9.90;7.90;;;;;;;10.95;100.00;97906.94;107511;1276;22552;-81
2023/09/01 04:44:39;;;;;;;11.90;7.40;;;;;;;10.92;100.00;97910.29;107301;1254;22543;-81
2023/09/01 04:47:07;;;;;;;8.80;7.90;;;;;;;10.94;100.00;97911.54;107100;1276;22638;-82
2023/09/01 04:49:36;;;;;;;10.40;7.90;;;;;;;10.99;100.00;97915.12;107204;1276;22798;-81
2023/09/01 04:52:04;;;;;;;9.70;8.70;;;;;;;11.00;100.00;97916.64;106940;1276;25356;-83
2023/09/01 04:54:32;;;;;;;11.10;8.40;;;;;;;11.08;100.00;97915.79;106995;1276;22597;-83
2023/09/01 04:57:02;;;;;;;10.30;8.20;;;;;;;11.17;100.00;97918.41;106804;1254;23869;-83
2023/09/01 04:59:30;;;;;;;10.10;8.90;;;;;;;11.30;100.00;97916.55;107049;1263;22554;-83
2023/09/01 05:01:59;;;;;;;14.70;9.50;;;;;;;11.49;100.00;97917.98;107096;1276;25443;-83
2023/09/01 05:04:27;;;;;;;11.10;9.10;;;;;;;11.64;100.00;97920.88;107093;1276;24258;-82
2023/09/01 05:06:55;;;;;;;11.00;9.90;;;;;;;11.80;100.00;97915.78;107122;1276;23122;-83
2023/09/01 05:09:23;;;;;;;13.70;10.40;;;;;;;11.92;100.00;97918.05;107201;1276;24367;-82
2023/09/01 05:11:52;;;;;;;11.40;8.60;;;;;;;12.00;100.00;97915.48;107174;1276;22642;-82
2023/09/01 05:14:20;;;;;;;11.40;9.40;;;;;;;12.11;100.00;97917.05;107162;1276;23226;-81
2023/09/01 05:16:48;;;;;;;11.30;8.20;;;;;;;12.26;100.00;97918.19;107077;1276;22593;-81
2023/09/01 05:19:18;;;;;;;9.30;8.30;;;;;;;12.37;100.00;97920.30;107131;1276;22574;-80
2023/09/01 05:21:46;;;;;;;9.90;7.80;;;;;;;12.41;100.00;97919.70;106671;1276;22585;-81
2023/09/01 05:24:14;;;;;;;10.70;8.80;;;;;;;12.48;100.00;97922.34;107160;1266;22535;-81
2023/09/01 05:26:42;;;;;;;12.30;8.90;;;;;;;12.55;100.00;97928.38;106832;1276;22765;-81
2023/09/01 05:29:11;;;;;;;12.90;9.10;;;;;;;12.61;100.00;97927.95;107615;1272;22636;-81
2023/09/01 05:31:39;;;;;;;12.40;9.20;;;;;;;12.66;100.00;97930.20;107168;1276;23011;-84
2023/09/01 05:34:07;;;;;;;11.30;8.90;;;;;;;12.72;100.00;97926.49;107026;1276;25409;-84
2023/09/01 05:36:36;;;;;;;10.80;8.10;;;;;;;12.86;100.00;97929.86;107009;1276;24203;-83
2023/09/01 05:39:04;;;;;;;11.50;8.20;;;;;;;12.99;100.00;97928.76;107263;1269;24585;-81
2023/09/01 05:41:32;;;;;;;9.30;7.40;;;;;;;13.09;100.00;97932.95;107587;1262;22533;-81
2023/09/01 05:44:01;;;;;;;12.40;8.30;;;;;;;13.18;100.00;97931.67;107263;1263;23247;-86
2023/09/01 05:46:32;;;;;;;10.30;7.60;;;;;;;13.23;100.00;97938.46;107092;1265;22534;-86
2023/09/01 05:49:00;;;;;;;13.50;9.00;;;;;;;13.28;100.00;97941.69;107448;1276;22765;-82
2023/09/01 05:51:28;;;;;;;15.80;8.60;;;;;;;13.32;100.00;97945.04;108195;1262;22534;-82
2023/09/01 05:53:58;;;;;;;15.10;8.90;;;;;;;13.34;100.00;97949.30;107190;1264;22580;-80
2023/09/01 05:56:26;;;;;;;14.10;8.00;;;;;;;13.40;100.00;97951.96;107227;1269;25575;-80
2023/09/01 05:58:54;;;;;;;12.40;8.80;;;;;;;13.46;100.00;97955.29;107884;1269;22532;-87
2023/09/01 06:01:22;;;;;;;11.00;7.70;;;;;;;13.52;100.00;97953.31;107161;1273;23095;-87
2023/09/01 06:03:50;;;;;;;10.80;8.10;;;;;;;13.59;100.00;97952.51;107111;1265;26073;-87
2023/09/01 06:06:18;;;;;;;12.10;8.20;;;;;;;13.77;100.00;97951.21;107662;1276;22650;-86
2023/09/01 06:09:12;;;;;;;16.80;8.90;;;;;;;14.04;100.00;97956.51;107542;1275;22613;-87
2023/09/01 06:11:40;;;;;;;13.30;8.70;;;;;;;14.32;100.00;97953.64;110327;1276;22492;-85
2023/09/01 06:14:08;;;;;;;10.90;7.60;;;;;;;14.43;100.00;97962.16;109427;1270;24183;-90
2023/09/01 06:16:36;;;;;;;10.50;8.00;;;;;;;14.50;100.00;97958.84;108459;1273;24257;-90
2023/09/01 06:19:04;;;;;;;17.30;9.20;;;;;;;14.65;100.00;97964.72;107862;1262;22517;-88
2023/09/01 06:21:32;;;;;;;14.10;7.90;;;;;;;14.71;100.00;97961.03;107324;1276;23215;-85
2023/09/01 06:24:00;;;;;;;9.10;7.40;;;;;;;14.75;100.00;97964.21;107251;1276;22548;-87
2023/09/01 06:26:31;;;;;;;10.00;7.50;;;;;;;14.74;100.00;97962.23;108986;1251;23592;-94
2023/09/01 06:29:38;;;;;;;9.70;8.70;;;;;;;14.75;100.00;97960.58;108433;1267;22640;-93
2023/09/01 06:32:11;;;;;;;8.50;7.40;;;;;;;14.72;99.37;97961.60;107439;1269;22796;-88
2023/09/01 06:34:39;;;;;;;12.10;8.20;;;;;;;14.72;99.99;97963.45;107341;1270;25377;-89
2023/09/01 06:37:08;;;;;;;10.00;7.40;;;;;;;14.79;100.00;97958.78;107211;1277;22553;-82
2023/09/01 06:39:36;;;;;;;11.90;6.40;;;;;;;14.96;99.81;97962.14;106863;1272;22628;-92
2023/09/01 06:42:06;;;;;;;13.20;6.70;;;;;;;14.99;98.64;97960.78;107206;1273;24235;-89
2023/09/01 06:44:36;;;;;;;8.20;5.60;;;;;;;15.08;99.81;97958.40;109800;1277;22689;-86
2023/09/01 06:47:04;;;;;;;8.90;6.00;;;;;;;15.27;100.00;97955.38;108625;1272;22624;-84
2023/09/01 06:49:32;;;;;;;9.20;5.60;;;;;;;15.54;100.00;97956.11;109118;1278;22646;-84
2023/09/01 06:52:00;;;;;;;9.40;4.80;;;;;;;15.85;100.00;97952.88;109271;1278;23793;-85
2023/09/01 06:54:28;;;;;;;10.50;4.50;;;;;;;16.05;100.00;97951.11;108065;1275;22543;-83
2023/09/01 06:56:56;;;;;;;8.80;6.20;;;;;;;16.20;99.67;97952.66;109865;1272;25023;-86
2023/09/01 06:59:24;;;;;;;9.90;6.00;;;;;;;16.21;96.20;97957.13;107924;1278;22555;-90
2023/09/01 07:01:52;;;;;;;10.30;6.00;;;;;;;16.12;94.82;97959.20;107918;1278;22646;-89
2023/09/01 07:04:20;;;;;;;12.80;5.90;;;;;;;16.05;94.72;97959.27;107855;1278;22747;-90
2023/09/01 07:06:49;;;;;;;10.20;5.20;;;;;;;16.06;95.42;97961.11;108073;1272;22548;-90
2023/09/01 07:09:19;;;;;;;6.80;4.60;;;;;;;16.13;96.35;97958.86;107534;1265;22579;-83
2023/09/01 07:11:47;;;;;;;8.60;5.10;;;;;;;16.22;95.88;97963.05;107537;1260;22762;-88
2023/09/01 07:14:15;;;;;;;9.20;4.60;;;;;;;16.26;93.85;97964.05;107310;1278;22549;-87
2023/09/01 07:16:43;;;;;;;10.10;5.40;;;;;;;16.26;93.62;97963.29;107280;1263;22624;-83
2023/09/01 07:19:11;;;;;;;10.50;5.10;;;;;;;16.31;93.90;97967.82;107274;1278;25435;-83
2023/09/01 07:21:39;;;;;;;13.90;5.40;;;;;;;16.40;92.59;97969.14;107332;1274;22763;-83
2023/09/01 07:24:08;;;;;;;13.40;5.60;;;;;;;16.48;92.36;97968.17;107262;1257;24203;-84
2023/09/01 07:26:36;;;;;;;9.00;4.60;;;;;;;16.54;91.07;97966.58;107248;1275;22769;-85
2023/09/01 07:29:04;;;;;;;8.40;4.80;;;;;;;16.56;88.30;97974.36;107437;1278;22755;-83
2023/09/01 07:31:32;;;;;;;9.10;4.90;;;;;;;16.56;85.98;97973.34;107252;1278;24342;-84
2023/09/01 07:34:00;;;;;;;9.10;4.70;;;;;;;16.58;85.85;97970.38;107338;1277;24253;-85
2023/09/01 07:36:28;;;;;;;8.40;4.60;;;;;;;16.59;81.34;97974.14;107266;1272;22523;-85
2023/09/01 07:38:56;;;;;;;9.00;4.80;;;;;;;16.53;82.28;97971.29;107748;1263;22710;-90
2023/09/01 07:41:24;;;;;;;9.10;4.80;;;;;;;16.55;80.82;97981.09;107255;1272;25227;-87
2023/09/01 07:43:52;;;;;;;9.20;5.40;;;;;;;16.56;80.41;97981.91;109025;1275;22572;-82
2023/09/01 07:46:20;;;;;;;8.60;4.90;;;;;;;16.66;82.97;97979.52;107225;1278;22637;-85
2023/09/01 07:48:48;;;;;;;7.80;4.90;;;;;;;16.81;83.06;97986.26;107331;1266;24253;-81
2023/09/01 07:51:17;;;;;;;8.00;5.30;;;;;;;16.95;83.02;97987.05;107569;1270;22620;-81
2023/09/01 07:53:45;;;;;;;8.30;4.60;;;;;;;17.10;83.10;97988.70;107671;1263;22589;-82
2023/09/01 07:56:13;;;;;;;7.90;5.30;;;;;;;17.25;82.74;97986.63;107589;1265;22547;-82
2023/09/01 07:58:41;;;;;;;8.20;4.70;;;;;;;17.43;82.28;97988.59;107342;1271;22531;-83
2023/09/01 08:01:09;;;;;;;11.00;5.60;;;;;;;17.48;80.85;97985.94;107330;1278;22728;-81
2023/09/01 08:03:37;;;;;;;8.50;4.90;;;;;;;17.54;81.79;97986.52;107531;1278;22540;-83
2023/09/01 08:06:05;;;;;;;9.50;4.60;;;;;;;17.58;80.62;97982.36;107274;1278;23128;-81
2023/09/01 08:08:33;;;;;;;7.70;4.30;;;;;;;17.58;80.13;97982.83;107221;1270;22524;-83
2023/09/01 08:11:02;;;;;;;8.70;5.30;;;;;;;17.58;79.86;97982.36;107171;1278;24343;-86
2023/09/01 08:13:30;;;;;;;11.20;5.30;;;;;;;17.57;80.08;97986.48;107162;1276;22546;-82
2023/09/01 08:15:58;;;;;;;7.70;4.70;;;;;;;17.65;80.66;97989.21;107218;1278;22744;-83
2023/09/01 08:18:26;;;;;;;9.70;4.40;;;;;;;17.78;80.38;97985.39;107318;1256;22527;-82
2023/09/01 08:20:54;;;;;;;9.20;5.00;;;;;;;17.82;79.28;97977.58;107265;1263;25529;-83
2023/09/01 08:23:22;;;;;;;9.20;5.10;;;;;;;17.89;77.01;97984.27;107255;1277;24521;-83
2023/09/01 08:25:50;;;;;;;6.20;3.50;;;;;;;17.90;76.34;97985.52;107227;1270;22560;-81
2023/09/01 08:28:18;;;;;;;9.10;4.30;;;;;;;17.98;77.55;97987.58;107112;1275;23875;-84
2023/09/01 08:30:46;;;;;;;7.40;3.90;;;;;;;18.02;75.17;97991.10;107166;1263;25346;-83
2023/09/01 08:33:17;;;;;;;9.80;4.40;;;;;;;17.99;74.91;97986.66;107167;1278;22551;-84
2023/09/01 08:35:45;;;;;;;7.40;4.20;;;;;;;17.94;74.00;97983.30;107138;1272;22533;-84
2023/09/01 08:38:13;;;;;;;6.50;3.90;;;;;;;17.83;70.85;97989.92;106955;1276;22651;-86
2023/09/01 08:40:43;;;;;;;8.70;4.50;;;;;;;17.75;71.27;97986.16;107042;1278;22527;-84
2023/09/01 08:43:13;;;;;;;11.40;5.00;;;;;;;17.79;72.26;97986.44;107095;1277;22542;-84
2023/09/01 08:45:42;;;;;;;9.10;4.20;;;;;;;17.87;71.72;97986.13;107067;1275;25551;-86
2023/09/01 08:48:11;;;;;;;9.70;4.00;;;;;;;17.87;70.05;97994.88;107143;1278;22652;-83
2023/09/01 08:50:40;;;;;;;10.50;4.70;;;;;;;17.90;70.88;97992.92;107042;1278;23089;-81
2023/09/01 08:53:08;;;;;;;7.90;3.90;;;;;;;17.98;71.51;97993.32;107183;1272;25316;-84
2023/09/01 08:55:37;;;;;;;9.60;5.30;;;;;;;18.10;70.13;97995.84;107220;1272;22705;-84
2023/09/01 08:58:06;;;;;;;12.40;4.90;;;;;;;18.25;71.46;97995.27;108015;1278;25965;-84
2023/09/01 09:00:34;;;;;;;11.40;4.40;;;;;;;18.42;71.59;97989.33;107887;1268;22629;-83
2023/09/01 09:03:03;;;;;;;9.70;4.60;;;;;;;18.52;71.01;97994.07;107117;1274;22558;-83
2023/09/01 09:05:35;;;;;;;7.20;4.00;;;;;;;18.55;69.43;97995.06;107116;1272;23794;-83
2023/09/01 09:08:06;;;;;;;8.70;5.00;;;;;;;18.50;69.14;98000.33;106997;1268;22531;-83
2023/09/01 09:10:34;;;;;;;9.90;4.30;;;;;;;18.41;65.96;98000.61;107103;1278;23885;-83
2023/09/01 09:13:30;;;;;;;7.20;4.20;;;;;;;18.32;65.97;98003.88;107256;1278;22546;-83
2023/09/01 09:16:05;;;;;;;8.20;3.90;;;;;;;18.34;66.32;98005.27;107085;1262;22547;-84
2023/09/01 09:18:33;;;;;;;8.10;4.10;;;;;;;18.35;63.45;98013.48;107191;1278;22522;-83
2023/09/01 09:21:01;;;;;;;7.10;4.20;;;;;;;18.32;63.72;98011.29;107171;1278;23477;-81
2023/09/01 09:23:47;;;;;;;7.30;3.70;;;;;;;18.38;63.84;98014.02;106918;1278;22594;-83
2023/09/01 09:26:15;;;;;;;5.80;3.70;;;;;;;18.42;62.36;98015.53;107219;1268;22731;-83
2023/09/01 09:28:44;;;;;;;13.20;4.70;;;;;;;18.45;62.94;98013.80;107497;1265;23059;-81
2023/09/01 09:31:12;;;;;;;5.90;3.90;;;;;;;18.54;63.35;98007.93;107220;1268;24532;-83
2023/09/01 09:33:42;;;;;;;8.10;4.40;;;;;;;18.75;64.26;98004.42;107195;1278;22583;-83
2023/09/01 09:36:10;;;;;;;7.90;4.10;;;;;;;19.01;63.36;98007.77;107146;1276;24238;-82
2023/09/01 09:38:46;;;;;;;12.30;4.30;;;;;;;19.30;62.62;98007.05;107190;1276;26405;-83
2023/09/01 09:41:14;;;;;;;9.40;4.00;;;;;;;19.44;61.27;98015.23;107292;1278;22640;-83
2023/09/01 09:43:44;;;;;;;8.20;3.80;;;;;;;19.45;61.18;98011.74;107131;1266;25407;-81
2023/09/01 09:46:14;;;;;;;5.40;3.20;;;;;;;19.37;58.36;98009.41;107431;1268;25339;-83
2023/09/01 09:48:42;;;;;;;7.50;3.70;;;;;;;19.25;57.78;98013.83;107341;1276;22799;-80
2023/09/01 09:51:11;;;;;;;7.70;4.20;;;;;;;19.20;57.38;98015.34;107276;1275;22589;-83
2023/09/01 09:53:40;;;;;;;7.30;4.10;;;;;;;19.14;58.55;98012.69;107107;1278;22655;-87
2023/09/01 09:56:18;;;;;;;7.40;3.90;;;;;;;19.22;59.21;98012.35;107124;1271;25479;-84
2023/09/01 09:58:50;;;;;;;8.50;4.10;;;;;;;19.33;59.17;98015.04;107197;1268;25328;-84
2023/09/01 10:01:19;;;;;;;7.40;4.10;;;;;;;19.40;59.02;98012.00;107007;1278;22654;-84
2023/09/01 10:03:49;;;;;;;7.50;4.00;;;;;;;19.46;59.11;98011.30;107170;1275;26056;-84
2023/09/01 10:06:17;;;;;;;10.70;4.40;;;;;;;19.55;59.86;98007.20;107146;1267;22629;-80
2023/09/01 10:08:45;;;;;;;7.00;4.10;;;;;;;19.67;58.29;98014.00;107225;1266;23327;-78
2023/09/01 10:11:15;;;;;;;13.00;5.10;;;;;;;19.62;58.06;98010.81;107215;1268;24372;-79
2023/09/01 10:13:47;;;;;;;5.80;3.40;;;;;;;19.66;58.41;98005.75;106667;1278;22583;-80
2023/09/01 10:16:16;;;;;;;7.80;3.80;;;;;;;19.69;58.39;97998.50;107121;1269;24260;-81
2023/09/01 10:18:44;;;;;;;7.20;3.60;;;;;;;19.74;57.78;97996.09;107142;1278;24193;-80
2023/09/01 10:21:13;;;;;;;9.00;4.70;;;;;;;19.84;58.56;97995.23;107148;1266;24327;-81
2023/09/01 10:23:42;;;;;;;7.60;4.50;;;;;;;20.04;57.18;97998.32;107042;1272;25370;-78
2023/09/01 10:26:17;;;;;;;8.50;3.50;;;;;;;20.09;56.37;98005.86;107065;1275;22856;-79
2023/09/01 10:29:04;;;;;;;6.50;4.00;;;;;;;20.02;56.19;98001.16;107042;1278;23164;-80
2023/09/01 10:31:35;;;;;;;8.90;4.00;;;;;;;20.00;56.61;98002.76;107034;1278;22570;-80
2023/09/01 10:34:13;;;;;;;7.80;3.80;;;;;;;19.96;55.99;97999.56;107148;1275;22666;-80
2023/09/01 10:36:43;;;;;;;7.20;3.80;;;;;;;20.01;57.19;97996.38;107060;1278;22482;-80
2023/09/01 10:39:21;;;;;;;8.30;3.70;;;;;;;20.07;56.51;97999.00;107303;1258;22640;-80
2023/09/01 10:41:51;;;;;;;8.60;4.00;;;;;;;20.09;57.58;98000.38;107563;1271;22523;-80
2023/09/01 10:44:21;;;;;;;6.90;3.70;;;;;;;20.19;58.12;98006.22;107428;1278;22585;-79
2023/09/01 10:46:49;;;;;;;5.80;3.70;;;;;;;20.30;57.45;98002.52;107657;1273;22665;-80
2023/09/01 10:49:17;;;;;;;8.50;3.80;;;;;;;20.37;57.89;98002.20;106924;1278;22534;-78
2023/09/01 10:51:46;;;;;;;10.30;3.90;;;;;;;20.34;55.41;98004.09;106538;1266;22539;-78
2023/09/01 10:54:14;;;;;;;7.30;3.80;;;;;;;20.20;55.44;97999.83;106771;1260;22533;-78
2023/09/01 10:57:00;;;;;;;8.90;4.20;;;;;;;20.12;55.33;97994.74;106652;1263;25570;-78
2023/09/01 10:59:32;;;;;;;6.30;3.60;;;;;;;20.01;53.65;97993.33;107163;1278;23837;-80
2023/09/01 11:02:20;;;;;;;7.50;3.30;;;;;;;19.83;53.59;97989.75;107401;1278;22612;-81
2023/09/01 11:04:49;;;;;;;8.50;4.30;;;;;;;19.70;54.86;97996.73;107332;1272;24090;-81
2023/09/01 11:07:17;;;;;;;7.90;4.00;;;;;;;19.73;54.78;97989.99;107105;1275;25255;-81
2023/09/01 11:09:48;;;;;;;7.90;4.20;;;;;;;19.81;54.13;97989.05;107140;1268;24396;-82
2023/09/01 11:12:17;;;;;;;6.00;3.80;;;;;;;19.82;54.91;97989.02;107148;1278;22526;-80
2023/09/01 11:14:59;;;;;;;5.90;3.60;;;;;;;19.89;55.21;97987.69;106717;1263;22620;-80
2023/09/01 11:17:44;;;;;;;6.70;3.60;;;;;;;20.03;55.15;97992.35;107133;1278;25456;-82
2023/09/01 11:20:18;;;;;;;7.10;3.80;;;;;;;20.12;55.37;97996.30;107105;1280;25217;-80
2023/09/01 11:22:47;;;;;;;8.20;3.90;;;;;;;20.17;55.00;97991.56;107000;1279;22694;-82
2023/09/01 11:25:19;;;;;;;8.20;3.50;;;;;;;20.17;55.50;97989.04;107091;1278;22561;-81
2023/09/01 11:27:49;;;;;;;8.40;5.10;;;;;;;20.14;54.97;97995.33;107228;1273;22996;-80
2023/09/01 11:30:52;;;;;;;13.50;6.30;;;;;;;20.08;55.03;97991.29;107258;1277;24180;-79
2023/09/01 11:33:23;;;;;;;17.90;8.40;;;;;;;20.01;54.53;97989.65;106913;1276;24262;-80